sensor_id;sensor_type;location;lat;lon;timestamp;pressure;altitude;pressure_sealevel;temperature;humidity
73974;BME280;62336;-26.094;27.994;2022-09-17T02:37:54;84947.52;;;27.37;13.51
73974;BME280;62336;-26.094;27.994;2022-09-17T02:40:23;84947.12;;;27.57;13.18
73974;BME280;62336;-26.094;27.994;2022-09-17T02:42:54;84950.55;;;27.75;12.88
73974;BME280;62336;-26.094;27.994;2022-09-17T02:45:17;84952.76;;;27.81;12.91
73974;BME280;62336;-26.094;27.994;2022-09-17T02:47:51;84952.83;;;27.78;13.45
73974;BME280;62336;-26.094;27.994;2022-09-17T02:50:12;84954.16;;;28.24;12.70
73974;BME280;62336;-26.094;27.994;2022-09-17T02:52:35;84955.74;;;27.98;12.71
73974;BME280;62336;-26.094;27.994;2022-09-17T02:54:58;84955.25;;;28.36;12.64
73974;BME280;62336;-26.094;27.994;2022-09-17T02:57:21;84960.16;;;28.47;12.78
73974;BME280;62336;-26.094;27.994;2022-09-17T02:59:50;84961.60;;;28.35;13.00
73974;BME280;62336;-26.094;27.994;2022-09-17T03:02:14;84965.38;;;28.19;13.28
73974;BME280;62336;-26.094;27.994;2022-09-17T03:04:33;84969.40;;;27.71;13.65
73974;BME280;62336;-26.094;27.994;2022-09-17T03:06:59;84970.45;;;28.05;13.29
73974;BME280;62336;-26.094;27.994;2022-09-17T03:09:25;84967.91;;;28.46;12.97
73974;BME280;62336;-26.094;27.994;2022-09-17T03:11:49;84974.99;;;28.09;13.49
73974;BME280;62336;-26.094;27.994;2022-09-17T03:14:15;84975.88;;;28.08;13.13
73974;BME280;62336;-26.094;27.994;2022-09-17T03:16:41;84977.22;;;28.00;12.84
73974;BME280;62336;-26.094;27.994;2022-09-17T03:19:06;84977.72;;;27.74;12.98
73974;BME280;62336;-26.094;27.994;2022-09-17T03:21:32;84979.25;;;27.74;13.13
73974;BME280;62336;-26.094;27.994;2022-09-17T03:23:57;84985.00;;;27.55;13.12
73974;BME280;62336;-26.094;27.994;2022-09-17T03:26:22;84984.83;;;27.65;13.12
73974;BME280;62336;-26.094;27.994;2022-09-17T03:28:48;84982.46;;;27.35;13.28
73974;BME280;62336;-26.094;27.994;2022-09-17T03:31:13;84982.15;;;27.48;13.43
73974;BME280;62336;-26.094;27.994;2022-09-17T03:33:38;84985.68;;;27.41;13.55
73974;BME280;62336;-26.094;27.994;2022-09-17T03:36:04;84985.30;;;27.45;13.55
73974;BME280;62336;-26.094;27.994;2022-09-17T03:38:29;84985.09;;;27.70;13.54
73974;BME280;62336;-26.094;27.994;2022-09-17T03:40:58;84988.19;;;27.44;13.99
73974;BME280;62336;-26.094;27.994;2022-09-17T03:43:19;84987.84;;;27.45;14.19
73974;BME280;62336;-26.094;27.994;2022-09-17T03:45:44;84990.30;;;27.76;13.49
73974;BME280;62336;-26.094;27.994;2022-09-17T03:48:09;84993.26;;;27.38;13.43
73974;BME280;62336;-26.094;27.994;2022-09-17T03:50:34;84999.85;;;27.91;13.38
73974;BME280;62336;-26.094;27.994;2022-09-17T03:53:00;84999.70;;;27.68;13.63
73974;BME280;62336;-26.094;27.994;2022-09-17T03:55:27;84998.75;;;27.64;13.99
73974;BME280;62336;-26.094;27.994;2022-09-17T03:57:50;84998.75;;;27.41;13.81
73974;BME280;62336;-26.094;27.994;2022-09-17T04:00:16;84997.84;;;27.05;13.97
73974;BME280;62336;-26.094;27.994;2022-09-17T04:02:42;84999.94;;;27.16;14.06
73974;BME280;62336;-26.094;27.994;2022-09-17T04:05:08;85003.18;;;27.67;13.81
73974;BME280;62336;-26.094;27.994;2022-09-17T04:07:32;85003.26;;;27.51;14.13
73974;BME280;62336;-26.094;27.994;2022-09-17T04:09:57;85004.52;;;27.39;14.18
73974;BME280;62336;-26.094;27.994;2022-09-17T04:12:23;85005.36;;;27.14;14.03
73974;BME280;62336;-26.094;27.994;2022-09-17T04:14:48;85005.79;;;27.33;13.66
73974;BME280;62336;-26.094;27.994;2022-09-17T04:17:14;85006.61;;;27.33;14.10
73974;BME280;62336;-26.094;27.994;2022-09-17T04:19:39;85005.75;;;27.50;13.73
73974;BME280;62336;-26.094;27.994;2022-09-17T04:22:05;85008.66;;;27.34;13.67
73974;BME280;62336;-26.094;27.994;2022-09-17T04:24:31;85007.61;;;27.05;14.17
73974;BME280;62336;-26.094;27.994;2022-09-17T04:26:56;85010.45;;;26.90;14.11
73974;BME280;62336;-26.094;27.994;2022-09-17T04:29:21;85009.86;;;27.02;13.95
73974;BME280;62336;-26.094;27.994;2022-09-17T04:31:47;85011.65;;;27.07;14.22
73974;BME280;62336;-26.094;27.994;2022-09-17T04:34:12;85015.94;;;27.22;14.13
73974;BME280;62336;-26.094;27.994;2022-09-17T04:36:38;85016.47;;;27.10;14.12
73974;BME280;62336;-26.094;27.994;2022-09-17T04:39:03;85017.34;;;27.04;14.29
73974;BME280;62336;-26.094;27.994;2022-09-17T04:41:29;85022.32;;;27.22;14.32
73974;BME280;62336;-26.094;27.994;2022-09-17T04:43:54;85023.80;;;27.23;14.08
73974;BME280;62336;-26.094;27.994;2022-09-17T04:46:19;85027.32;;;27.61;13.69
73974;BME280;62336;-26.094;27.994;2022-09-17T04:48:45;85031.67;;;27.73;13.54
73974;BME280;62336;-26.094;27.994;2022-09-17T04:51:10;85036.42;;;27.58;13.72
73974;BME280;62336;-26.094;27.994;2022-09-17T04:53:35;85041.23;;;27.02;14.07
73974;BME280;62336;-26.094;27.994;2022-09-17T04:56:00;85039.63;;;27.66;13.86
73974;BME280;62336;-26.094;27.994;2022-09-17T04:58:25;85039.41;;;28.31;13.89
73974;BME280;62336;-26.094;27.994;2022-09-17T05:00:51;85039.31;;;28.27;13.78
73974;BME280;62336;-26.094;27.994;2022-09-17T05:03:16;85040.46;;;28.20;13.89
73974;BME280;62336;-26.094;27.994;2022-09-17T05:05:42;85040.66;;;27.83;14.44
73974;BME280;62336;-26.094;27.994;2022-09-17T05:08:07;85048.17;;;28.19;14.11
73974;BME280;62336;-26.094;27.994;2022-09-17T05:10:32;85053.44;;;28.05;13.70
73974;BME280;62336;-26.094;27.994;2022-09-17T05:12:58;85054.77;;;27.88;13.70
73974;BME280;62336;-26.094;27.994;2022-09-17T05:15:24;85059.84;;;28.48;14.74
73974;BME280;62336;-26.094;27.994;2022-09-17T05:17:48;85060.19;;;28.04;13.66
73974;BME280;62336;-26.094;27.994;2022-09-17T05:20:14;85062.80;;;28.34;13.80
73974;BME280;62336;-26.094;27.994;2022-09-17T05:22:42;85062.13;;;27.97;13.83
73974;BME280;62336;-26.094;27.994;2022-09-17T05:25:05;85062.65;;;27.98;13.93
73974;BME280;62336;-26.094;27.994;2022-09-17T05:27:29;85062.60;;;28.49;13.96
73974;BME280;62336;-26.094;27.994;2022-09-17T05:29:54;85063.93;;;29.34;13.29
73974;BME280;62336;-26.094;27.994;2022-09-17T05:32:20;85065.39;;;28.97;13.63
73974;BME280;62336;-26.094;27.994;2022-09-17T05:34:46;85068.13;;;28.58;14.08
73974;BME280;62336;-26.094;27.994;2022-09-17T05:37:11;85072.33;;;28.52;14.05
73974;BME280;62336;-26.094;27.994;2022-09-17T05:39:36;85074.08;;;28.82;13.91
73974;BME280;62336;-26.094;27.994;2022-09-17T05:42:02;85071.81;;;29.02;13.75
73974;BME280;62336;-26.094;27.994;2022-09-17T05:44:28;85073.40;;;29.28;13.86
73974;BME280;62336;-26.094;27.994;2022-09-17T05:46:53;85073.56;;;29.26;13.02
73974;BME280;62336;-26.094;27.994;2022-09-17T05:49:18;85070.63;;;29.17;12.74
73974;BME280;62336;-26.094;27.994;2022-09-17T05:51:44;85069.47;;;29.47;12.37
73974;BME280;62336;-26.094;27.994;2022-09-17T05:54:09;85073.15;;;29.75;12.22
73974;BME280;62336;-26.094;27.994;2022-09-17T05:56:36;85079.13;;;29.63;11.09
73974;BME280;62336;-26.094;27.994;2022-09-17T05:59:00;85081.38;;;30.36;11.07
73974;BME280;62336;-26.094;27.994;2022-09-17T06:01:26;85085.67;;;30.09;10.29
73974;BME280;62336;-26.094;27.994;2022-09-17T06:03:51;85087.09;;;30.34;10.10
73974;BME280;62336;-26.094;27.994;2022-09-17T06:06:16;85089.36;;;30.38;10.73
73974;BME280;62336;-26.094;27.994;2022-09-17T06:08:41;85082.19;;;30.44;10.32
73974;BME280;62336;-26.094;27.994;2022-09-17T06:11:07;85084.43;;;31.10;10.03
73974;BME280;62336;-26.094;27.994;2022-09-17T06:13:33;85087.96;;;31.22;9.89
73974;BME280;62336;-26.094;27.994;2022-09-17T06:15:57;85085.41;;;31.35;9.05
73974;BME280;62336;-26.094;27.994;2022-09-17T06:18:23;85087.17;;;31.42;9.13
73974;BME280;62336;-26.094;27.994;2022-09-17T06:20:52;85087.51;;;31.56;8.74
73974;BME280;62336;-26.094;27.994;2022-09-17T06:23:14;85085.93;;;31.38;9.52
73974;BME280;62336;-26.094;27.994;2022-09-17T06:25:40;85087.27;;;31.86;9.25
73974;BME280;62336;-26.094;27.994;2022-09-17T06:28:05;85088.48;;;31.51;9.43
73974;BME280;62336;-26.094;27.994;2022-09-17T06:30:31;85086.31;;;32.12;8.59
73974;BME280;62336;-26.094;27.994;2022-09-17T06:32:59;85083.52;;;31.67;9.08
73974;BME280;62336;-26.094;27.994;2022-09-17T06:35:21;85082.23;;;31.94;9.20
73974;BME280;62336;-26.094;27.994;2022-09-17T06:37:47;85082.32;;;31.38;9.16
73974;BME280;62336;-26.094;27.994;2022-09-17T06:40:12;85085.00;;;31.56;9.02
73974;BME280;62336;-26.094;27.994;2022-09-17T06:42:38;85083.82;;;32.12;8.42
73974;BME280;62336;-26.094;27.994;2022-09-17T06:45:03;85088.48;;;31.61;8.73
73974;BME280;62336;-26.094;27.994;2022-09-17T06:47:30;85086.11;;;32.08;9.00
73974;BME280;62336;-26.094;27.994;2022-09-17T06:49:54;85087.17;;;31.58;9.23
73974;BME280;62336;-26.094;27.994;2022-09-17T06:52:20;85081.75;;;31.46;9.02
73974;BME280;62336;-26.094;27.994;2022-09-17T06:54:46;85078.75;;;31.98;8.74
73974;BME280;62336;-26.094;27.994;2022-09-17T06:57:11;85081.93;;;32.01;8.82
73974;BME280;62336;-26.094;27.994;2022-09-17T06:59:36;85080.21;;;31.83;9.33
73974;BME280;62336;-26.094;27.994;2022-09-17T07:02:02;85080.30;;;32.27;8.86
73974;BME280;62336;-26.094;27.994;2022-09-17T07:04:27;85081.14;;;32.31;8.62
73974;BME280;62336;-26.094;27.994;2022-09-17T07:06:52;85086.27;;;31.98;8.91
73974;BME280;62336;-26.094;27.994;2022-09-17T07:09:18;85083.55;;;32.15;8.46
73974;BME280;62336;-26.094;27.994;2022-09-17T07:11:43;85082.79;;;32.37;8.69
73974;BME280;62336;-26.094;27.994;2022-09-17T07:14:09;85082.64;;;32.47;8.61
73974;BME280;62336;-26.094;27.994;2022-09-17T07:16:35;85079.77;;;32.07;8.59
73974;BME280;62336;-26.094;27.994;2022-09-17T07:19:01;85081.23;;;32.33;8.87
73974;BME280;62336;-26.094;27.994;2022-09-17T07:21:27;85084.34;;;32.56;8.49
73974;BME280;62336;-26.094;27.994;2022-09-17T07:23:52;85083.60;;;32.82;8.38
73974;BME280;62336;-26.094;27.994;2022-09-17T07:26:17;85080.93;;;33.50;8.33
73974;BME280;62336;-26.094;27.994;2022-09-17T07:28:42;85083.67;;;32.70;8.55
73974;BME280;62336;-26.094;27.994;2022-09-17T07:31:08;85086.83;;;32.71;8.69
73974;BME280;62336;-26.094;27.994;2022-09-17T07:33:34;85083.20;;;33.60;7.78
73974;BME280;62336;-26.094;27.994;2022-09-17T07:36:00;85082.30;;;34.05;7.46
73974;BME280;62336;-26.094;27.994;2022-09-17T07:38:24;85082.28;;;33.84;7.45
73974;BME280;62336;-26.094;27.994;2022-09-17T07:40:56;85077.36;;;33.56;7.96
73974;BME280;62336;-26.094;27.994;2022-09-17T07:43:14;85078.73;;;34.30;7.58
73974;BME280;62336;-26.094;27.994;2022-09-17T07:45:39;85071.95;;;33.61;7.56
73974;BME280;62336;-26.094;27.994;2022-09-17T07:48:05;85072.59;;;34.20;7.66
73974;BME280;62336;-26.094;27.994;2022-09-17T07:50:30;85074.20;;;34.48;7.58
73974;BME280;62336;-26.094;27.994;2022-09-17T07:52:56;85070.88;;;34.53;7.29
73974;BME280;62336;-26.094;27.994;2022-09-17T07:55:21;85068.53;;;34.69;7.13
73974;BME280;62336;-26.094;27.994;2022-09-17T07:57:50;85066.94;;;34.58;7.13
73974;BME280;62336;-26.094;27.994;2022-09-17T08:00:13;85060.40;;;35.21;7.50
73974;BME280;62336;-26.094;27.994;2022-09-17T08:02:38;85060.38;;;35.50;6.85
73974;BME280;62336;-26.094;27.994;2022-09-17T08:05:04;85059.82;;;35.85;6.11
73974;BME280;62336;-26.094;27.994;2022-09-17T08:07:30;85058.54;;;35.44;6.35
73974;BME280;62336;-26.094;27.994;2022-09-17T08:09:55;85065.20;;;35.97;6.18
73974;BME280;62336;-26.094;27.994;2022-09-17T08:12:20;85061.43;;;35.73;6.25
73974;BME280;62336;-26.094;27.994;2022-09-17T08:14:46;85061.19;;;35.68;6.14
73974;BME280;62336;-26.094;27.994;2022-09-17T08:17:11;85057.64;;;35.33;6.52
73974;BME280;62336;-26.094;27.994;2022-09-17T10:28:46;84852.94;;;28.86;11.05
73974;BME280;62336;-26.094;27.994;2022-09-17T10:31:06;84850.48;;;31.83;8.74
73974;BME280;62336;-26.094;27.994;2022-09-17T10:33:31;84849.46;;;33.82;7.28
73974;BME280;62336;-26.094;27.994;2022-09-17T10:35:59;84846.80;;;35.01;6.17
73974;BME280;62336;-26.094;27.994;2022-09-17T10:38:26;84835.37;;;36.36;5.41
73974;BME280;62336;-26.094;27.994;2022-09-17T10:40:46;84835.98;;;36.68;4.75
73974;BME280;62336;-26.094;27.994;2022-09-17T10:43:20;84825.53;;;38.14;5.31
73974;BME280;62336;-26.094;27.994;2022-09-17T10:45:42;84824.68;;;38.55;4.84
73974;BME280;62336;-26.094;27.994;2022-09-17T10:48:03;84820.22;;;38.92;4.53
73974;BME280;62336;-26.094;27.994;2022-09-17T10:50:29;84812.56;;;39.34;3.91
73974;BME280;62336;-26.094;27.994;2022-09-17T10:52:54;84812.50;;;39.56;3.66
73974;BME280;62336;-26.094;27.994;2022-09-17T10:55:23;84809.22;;;39.42;3.57
73974;BME280;62336;-26.094;27.994;2022-09-17T10:57:59;84805.39;;;38.37;4.07
73974;BME280;62336;-26.094;27.994;2022-09-17T11:00:13;84802.98;;;38.85;4.25
73974;BME280;62336;-26.094;27.994;2022-09-17T11:05:06;84784.57;;;39.25;3.91
73974;BME280;62336;-26.094;27.994;2022-09-17T11:07:40;84785.41;;;39.15;4.10
73974;BME280;62336;-26.094;27.994;2022-09-17T11:09:58;84784.99;;;40.12;3.87
73974;BME280;62336;-26.094;27.994;2022-09-17T11:12:27;84780.55;;;39.77;3.84
73974;BME280;62336;-26.094;27.994;2022-09-17T11:14:50;84777.39;;;39.90;4.34
73974;BME280;62336;-26.094;27.994;2022-09-17T11:17:12;84774.17;;;40.21;3.92
73974;BME280;62336;-26.094;27.994;2022-09-17T11:19:39;84767.76;;;40.40;3.06
73974;BME280;62336;-26.094;27.994;2022-09-17T11:22:05;84759.97;;;40.37;3.23
73974;BME280;62336;-26.094;27.994;2022-09-17T11:24:38;84757.06;;;40.55;3.39
73974;BME280;62336;-26.094;27.994;2022-09-17T11:26:56;84759.60;;;40.09;3.36
73974;BME280;62336;-26.094;27.994;2022-09-17T11:29:31;84752.91;;;40.18;3.39
73974;BME280;62336;-26.094;27.994;2022-09-17T11:31:48;84752.42;;;40.53;3.11
73974;BME280;62336;-26.094;27.994;2022-09-17T11:34:18;84748.85;;;40.78;3.21
73974;BME280;62336;-26.094;27.994;2022-09-17T11:36:37;84750.89;;;40.13;2.96
73974;BME280;62336;-26.094;27.994;2022-09-17T11:38:58;84753.25;;;39.67;3.22
73974;BME280;62336;-26.094;27.994;2022-09-17T11:41:26;84746.47;;;38.79;3.62
73974;BME280;62336;-26.094;27.994;2022-09-17T11:43:52;84743.28;;;39.41;3.43
73974;BME280;62336;-26.094;27.994;2022-09-17T11:46:17;84741.74;;;39.84;2.90
73974;BME280;62336;-26.094;27.994;2022-09-17T11:48:43;84743.11;;;39.63;3.16
73974;BME280;62336;-26.094;27.994;2022-09-17T11:51:15;84743.19;;;39.37;3.26
73974;BME280;62336;-26.094;27.994;2022-09-17T11:53:35;84738.87;;;39.58;3.54
73974;BME280;62336;-26.094;27.994;2022-09-17T11:55:59;84739.83;;;39.70;3.57
73974;BME280;62336;-26.094;27.994;2022-09-17T11:58:28;84740.85;;;39.28;3.44
73974;BME280;62336;-26.094;27.994;2022-09-17T12:00:52;84733.49;;;38.93;3.22
73974;BME280;62336;-26.094;27.994;2022-09-17T12:03:17;84731.46;;;38.81;3.38
73974;BME280;62336;-26.094;27.994;2022-09-17T12:05:43;84730.11;;;38.78;3.32
73974;BME280;62336;-26.094;27.994;2022-09-17T12:08:09;84728.55;;;39.43;3.59
73974;BME280;62336;-26.094;27.994;2022-09-17T12:10:37;84726.36;;;38.67;3.51
73974;BME280;62336;-26.094;27.994;2022-09-17T12:12:58;84727.02;;;38.93;3.64
73974;BME280;62336;-26.094;27.994;2022-09-17T12:15:22;84724.87;;;39.30;3.64
73974;BME280;62336;-26.094;27.994;2022-09-17T12:17:52;84724.58;;;38.02;3.90
73974;BME280;62336;-26.094;27.994;2022-09-17T12:20:22;84722.46;;;38.37;3.83
73974;BME280;62336;-26.094;27.994;2022-09-17T12:22:38;84722.08;;;38.46;3.76
73974;BME280;62336;-26.094;27.994;2022-09-17T12:25:09;84723.32;;;38.38;3.74
73974;BME280;62336;-26.094;27.994;2022-09-17T12:27:35;84720.88;;;38.47;3.47
73974;BME280;62336;-26.094;27.994;2022-09-17T12:30:05;84721.45;;;38.04;3.81
73974;BME280;62336;-26.094;27.994;2022-09-17T12:32:32;84723.22;;;38.51;3.65
73974;BME280;62336;-26.094;27.994;2022-09-17T12:34:50;84720.58;;;38.40;3.86
73974;BME280;62336;-26.094;27.994;2022-09-17T12:37:22;84715.65;;;38.05;3.86
73974;BME280;62336;-26.094;27.994;2022-09-17T12:39:42;84713.18;;;37.64;4.29
73974;BME280;62336;-26.094;27.994;2022-09-17T12:42:07;84709.63;;;37.81;4.67
73974;BME280;62336;-26.094;27.994;2022-09-17T12:44:39;84708.34;;;38.31;4.36
73974;BME280;62336;-26.094;27.994;2022-09-17T12:47:03;84702.54;;;39.02;3.99
73974;BME280;62336;-26.094;27.994;2022-09-17T12:49:27;84696.07;;;38.78;3.93
73974;BME280;62336;-26.094;27.994;2022-09-17T12:51:51;84695.49;;;39.47;3.72
73974;BME280;62336;-26.094;27.994;2022-09-17T12:54:15;84696.90;;;39.68;3.51
73974;BME280;62336;-26.094;27.994;2022-09-17T12:56:44;84692.33;;;39.34;3.28
73974;BME280;62336;-26.094;27.994;2022-09-17T12:59:05;84688.22;;;40.23;3.60
73974;BME280;62336;-26.094;27.994;2022-09-17T13:01:29;84686.98;;;40.11;3.10
73974;BME280;62336;-26.094;27.994;2022-09-17T13:03:54;84687.29;;;39.86;3.40
73974;BME280;62336;-26.094;27.994;2022-09-17T13:06:35;84682.69;;;38.83;3.64
73974;BME280;62336;-26.094;27.994;2022-09-17T13:08:56;84683.09;;;39.13;3.71
73974;BME280;62336;-26.094;27.994;2022-09-17T13:11:28;84680.50;;;39.32;3.59
73974;BME280;62336;-26.094;27.994;2022-09-17T13:13:39;84681.33;;;39.70;3.60
73974;BME280;62336;-26.094;27.994;2022-09-17T13:16:01;84675.36;;;39.51;3.14
73974;BME280;62336;-26.094;27.994;2022-09-17T13:18:28;84672.57;;;39.07;3.92
73974;BME280;62336;-26.094;27.994;2022-09-17T13:20:58;84674.49;;;38.99;3.69
73974;BME280;62336;-26.094;27.994;2022-09-17T13:23:13;84670.32;;;38.91;3.82
73974;BME280;62336;-26.094;27.994;2022-09-17T13:28:07;84662.11;;;38.72;3.69
73974;BME280;62336;-26.094;27.994;2022-09-17T13:32:54;84659.78;;;38.71;3.80
73974;BME280;62336;-26.094;27.994;2022-09-17T13:37:53;84659.38;;;38.42;4.30
73974;BME280;62336;-26.094;27.994;2022-09-17T13:40:18;84657.46;;;38.93;3.35
73974;BME280;62336;-26.094;27.994;2022-09-17T13:42:41;84652.14;;;39.14;3.32
73974;BME280;62336;-26.094;27.994;2022-09-17T13:45:05;84650.61;;;39.31;3.68
73974;BME280;62336;-26.094;27.994;2022-09-17T13:47:28;84646.59;;;39.21;3.55
73974;BME280;62336;-26.094;27.994;2022-09-17T13:49:56;84649.95;;;39.43;3.85
73974;BME280;62336;-26.094;27.994;2022-09-17T13:52:30;84648.59;;;39.48;3.97
73974;BME280;62336;-26.094;27.994;2022-09-17T13:54:43;84646.88;;;39.04;3.76
73974;BME280;62336;-26.094;27.994;2022-09-17T13:57:12;84647.32;;;39.02;3.43
73974;BME280;62336;-26.094;27.994;2022-09-17T13:59:34;84648.24;;;39.08;3.56
73974;BME280;62336;-26.094;27.994;2022-09-17T14:02:18;84646.63;;;39.65;3.47
73974;BME280;62336;-26.094;27.994;2022-09-17T14:06:51;84650.95;;;38.93;3.88
73974;BME280;62336;-26.094;27.994;2022-09-17T14:11:41;84650.05;;;38.75;3.40
73974;BME280;62336;-26.094;27.994;2022-09-17T14:16:34;84651.17;;;38.27;3.67
73974;BME280;62336;-26.094;27.994;2022-09-17T14:19:00;84653.85;;;38.53;3.81
73974;BME280;62336;-26.094;27.994;2022-09-17T14:21:26;84656.26;;;38.81;3.54
73974;BME280;62336;-26.094;27.994;2022-09-17T14:23:54;84659.94;;;38.00;3.61
73974;BME280;62336;-26.094;27.994;2022-09-17T14:26:23;84653.10;;;38.75;3.52
73974;BME280;62336;-26.094;27.994;2022-09-17T14:28:46;84651.87;;;38.51;3.67
73974;BME280;62336;-26.094;27.994;2022-09-17T14:31:10;84654.98;;;38.66;4.09
73974;BME280;62336;-26.094;27.994;2022-09-17T14:33:31;84652.85;;;38.45;3.46
73974;BME280;62336;-26.094;27.994;2022-09-17T14:36:00;84654.58;;;38.30;3.61
73974;BME280;62336;-26.094;27.994;2022-09-17T14:38:22;84654.72;;;38.66;3.47
73974;BME280;62336;-26.094;27.994;2022-09-17T14:40:49;84652.75;;;39.01;3.14
73974;BME280;62336;-26.094;27.994;2022-09-17T14:43:18;84654.03;;;38.99;3.17
73974;BME280;62336;-26.094;27.994;2022-09-17T14:45:41;84650.07;;;38.93;3.53
73974;BME280;62336;-26.094;27.994;2022-09-17T14:48:17;84652.15;;;38.74;3.29
73974;BME280;62336;-26.094;27.994;2022-09-17T14:50:28;84652.76;;;39.16;2.99
73974;BME280;62336;-26.094;27.994;2022-09-17T14:52:54;84654.69;;;38.67;3.18
73974;BME280;62336;-26.094;27.994;2022-09-17T14:55:21;84654.77;;;38.20;3.41
73974;BME280;62336;-26.094;27.994;2022-09-17T14:57:46;84657.94;;;38.52;3.03
73974;BME280;62336;-26.094;27.994;2022-09-17T15:00:15;84655.92;;;38.68;2.93
73974;BME280;62336;-26.094;27.994;2022-09-17T15:02:38;84654.60;;;38.12;3.26
73974;BME280;62336;-26.094;27.994;2022-09-17T15:05:01;84660.28;;;37.96;3.24
73974;BME280;62336;-26.094;27.994;2022-09-17T15:07:26;84658.60;;;37.69;3.28
73974;BME280;62336;-26.094;27.994;2022-09-17T15:09:52;84662.88;;;37.54;3.49
73974;BME280;62336;-26.094;27.994;2022-09-17T15:12:18;84659.45;;;37.78;3.18
73974;BME280;62336;-26.094;27.994;2022-09-17T15:14:44;84657.95;;;37.48;3.48
73974;BME280;62336;-26.094;27.994;2022-09-17T15:17:14;84658.30;;;37.41;3.57
73974;BME280;62336;-26.094;27.994;2022-09-17T15:19:35;84656.87;;;37.82;3.81
73974;BME280;62336;-26.094;27.994;2022-09-17T15:22:00;84653.67;;;38.31;3.47
73974;BME280;62336;-26.094;27.994;2022-09-17T15:24:33;84652.79;;;39.14;3.11
73974;BME280;62336;-26.094;27.994;2022-09-17T15:26:53;84656.63;;;39.33;3.09
73974;BME280;62336;-26.094;27.994;2022-09-17T15:29:15;84659.29;;;39.65;3.28
73974;BME280;62336;-26.094;27.994;2022-09-17T15:31:40;84661.32;;;39.17;3.19
73974;BME280;62336;-26.094;27.994;2022-09-17T15:34:08;84661.76;;;38.64;3.17
73974;BME280;62336;-26.094;27.994;2022-09-17T15:36:31;84664.66;;;37.94;3.65
73974;BME280;62336;-26.094;27.994;2022-09-17T15:38:56;84659.64;;;37.87;3.84
73974;BME280;62336;-26.094;27.994;2022-09-17T15:41:28;84660.86;;;37.97;4.16
73974;BME280;62336;-26.094;27.994;2022-09-17T15:43:56;84658.98;;;37.25;4.44
73974;BME280;62336;-26.094;27.994;2022-09-17T15:46:24;84665.06;;;36.67;4.69
73974;BME280;62336;-26.094;27.994;2022-09-17T15:48:38;84664.98;;;37.07;5.03
73974;BME280;62336;-26.094;27.994;2022-09-17T15:51:11;84668.92;;;37.02;5.41
73974;BME280;62336;-26.094;27.994;2022-09-17T15:53:31;84667.48;;;36.70;5.34
73974;BME280;62336;-26.094;27.994;2022-09-17T15:56:05;84668.34;;;36.54;5.22
73974;BME280;62336;-26.094;27.994;2022-09-17T15:58:23;84668.68;;;36.29;5.38
73974;BME280;62336;-26.094;27.994;2022-09-17T16:00:46;84672.39;;;36.41;5.41
73974;BME280;62336;-26.094;27.994;2022-09-17T16:07:29;84677.30;;;29.19;9.56
73974;BME280;62336;-26.094;27.994;2022-09-17T16:09:54;84677.68;;;30.78;8.52
73974;BME280;62336;-26.094;27.994;2022-09-17T16:12:21;84682.28;;;32.02;7.94
73974;BME280;62336;-26.094;27.994;2022-09-17T16:14:48;84680.69;;;32.97;7.87
73974;BME280;62336;-26.094;27.994;2022-09-17T16:17:22;84681.83;;;33.30;7.49
73974;BME280;62336;-26.094;27.994;2022-09-17T16:19:36;84684.82;;;33.71;7.10
73974;BME280;62336;-26.094;27.994;2022-09-17T16:22:02;84688.59;;;33.83;6.88
73974;BME280;62336;-26.094;27.994;2022-09-17T16:24:27;84690.54;;;33.96;6.75
73974;BME280;62336;-26.094;27.994;2022-09-17T16:26:52;84691.05;;;34.27;6.96
73974;BME280;62336;-26.094;27.994;2022-09-17T16:29:18;84692.67;;;34.42;6.60
73974;BME280;62336;-26.094;27.994;2022-09-17T16:31:43;84695.05;;;34.27;6.58
73974;BME280;62336;-26.094;27.994;2022-09-17T16:34:08;84699.94;;;34.96;6.50
73974;BME280;62336;-26.094;27.994;2022-09-17T16:36:34;84703.61;;;34.87;6.44
73974;BME280;62336;-26.094;27.994;2022-09-17T16:38:59;84703.67;;;34.65;6.66
73974;BME280;62336;-26.094;27.994;2022-09-17T16:41:24;84704.18;;;34.77;6.78
73974;BME280;62336;-26.094;27.994;2022-09-17T16:43:50;84705.44;;;34.68;6.84
73974;BME280;62336;-26.094;27.994;2022-09-17T16:46:15;84708.23;;;34.17;7.01
73974;BME280;62336;-26.094;27.994;2022-09-17T16:48:42;84708.78;;;34.55;7.13
73974;BME280;62336;-26.094;27.994;2022-09-17T16:51:08;84708.29;;;34.34;7.31
73974;BME280;62336;-26.094;27.994;2022-09-17T16:53:32;84710.13;;;34.44;7.40
73974;BME280;62336;-26.094;27.994;2022-09-17T16:55:59;84712.77;;;33.96;7.54
73974;BME280;62336;-26.094;27.994;2022-09-17T16:58:23;84711.23;;;34.20;7.56
73974;BME280;62336;-26.094;27.994;2022-09-17T17:00:49;84716.01;;;34.34;7.71
73974;BME280;62336;-26.094;27.994;2022-09-17T17:03:15;84716.88;;;34.15;7.40
73974;BME280;62336;-26.094;27.994;2022-09-17T17:05:40;84719.51;;;34.21;7.64
73974;BME280;62336;-26.094;27.994;2022-09-17T17:08:06;84722.38;;;34.15;7.58
73974;BME280;62336;-26.094;27.994;2022-09-17T17:10:30;84719.91;;;33.87;7.80
73974;BME280;62336;-26.094;27.994;2022-09-17T17:12:56;84717.57;;;33.97;7.75
73974;BME280;62336;-26.094;27.994;2022-09-17T17:15:22;84719.18;;;33.81;8.08
73974;BME280;62336;-26.094;27.994;2022-09-17T17:17:48;84723.20;;;34.15;7.87
73974;BME280;62336;-26.094;27.994;2022-09-17T17:20:12;84725.26;;;33.59;8.32
73974;BME280;62336;-26.094;27.994;2022-09-17T17:22:38;84726.64;;;33.21;8.41
73974;BME280;62336;-26.094;27.994;2022-09-17T17:25:04;84730.11;;;33.15;8.30
73974;BME280;62336;-26.094;27.994;2022-09-17T17:27:28;84732.72;;;33.11;8.40
73974;BME280;62336;-26.094;27.994;2022-09-17T17:29:53;84735.86;;;33.12;8.58
73974;BME280;62336;-26.094;27.994;2022-09-17T17:32:18;84738.56;;;33.26;8.46
73974;BME280;62336;-26.094;27.994;2022-09-17T17:34:44;84736.03;;;33.92;8.31
73974;BME280;62336;-26.094;27.994;2022-09-17T17:37:09;84739.79;;;33.54;8.56
73974;BME280;62336;-26.094;27.994;2022-09-17T17:39:34;84734.71;;;33.58;8.43
73974;BME280;62336;-26.094;27.994;2022-09-17T17:42:00;84734.75;;;33.00;8.74
73974;BME280;62336;-26.094;27.994;2022-09-17T17:44:26;84738.22;;;32.94;9.19